Time;durP1;ratioP1;P1;durP2;ratioP2;P2;SDS_P1;SDS_P2;PMS_P1;PMS_P2;Temp;Humidity;BMP_temperature;BMP_pressure;BME280_temperature;BME280_humidity;BME280_pressure;Samples;Min_cycle;Max_cycle;Signal;HPM_P1;HPM_P2
2021/04/19 00:01:48;;;;;;;27.60;22.43;;;7.70;99.90;;;;;;5114239;28;20282;-58
2021/04/19 00:04:15;;;;;;;31.37;24.20;;;7.60;99.90;;;;;;5114249;28;20207;-57
2021/04/19 00:06:42;;;;;;;29.67;22.83;;;7.50;99.90;;;;;;5113843;28;20244;-59
2021/04/19 00:09:09;;;;;;;27.87;22.67;;;7.40;99.90;;;;;;5113947;28;20286;-59
2021/04/19 00:11:37;;;;;;;29.57;22.37;;;7.30;99.90;;;;;;5100071;28;20206;-58
2021/04/19 00:14:04;;;;;;;30.40;22.53;;;7.30;99.90;;;;;;5093599;28;20242;-57
2021/04/19 00:16:32;;;;;;;32.60;23.03;;;7.20;99.90;;;;;;5097191;28;20231;-58
2021/04/19 00:18:59;;;;;;;33.67;24.03;;;7.10;99.90;;;;;;5098318;28;20553;-59
2021/04/19 00:21:26;;;;;;;33.20;23.93;;;7.00;99.90;;;;;;5094180;28;20637;-57
2021/04/19 00:23:53;;;;;;;33.43;23.13;;;7.00;99.90;;;;;;5093538;28;20295;-57
2021/04/19 00:26:20;;;;;;;34.97;24.20;;;7.00;99.90;;;;;;5092663;28;20245;-59
2021/04/19 00:28:47;;;;;;;34.53;24.43;;;7.00;99.90;;;;;;5093334;28;20199;-57
2021/04/19 00:31:14;;;;;;;34.23;24.47;;;7.00;99.90;;;;;;5093235;28;20196;-57
2021/04/19 00:33:42;;;;;;;35.73;23.73;;;7.00;99.90;;;;;;5093119;28;20257;-56
2021/04/19 00:36:10;;;;;;;34.77;23.40;;;6.90;99.90;;;;;;5092741;28;20252;-58
2021/04/19 00:38:37;;;;;;;34.93;23.20;;;6.80;99.90;;;;;;5093031;28;20283;-58
2021/04/19 00:41:06;;;;;;;36.33;24.07;;;6.80;99.90;;;;;;5101728;28;20212;-56
2021/04/19 00:43:33;;;;;;;34.57;23.77;;;6.80;99.90;;;;;;5112724;28;20252;-58
2021/04/19 00:46:02;;;;;;;35.57;23.60;;;6.80;99.90;;;;;;5113417;28;20209;-58
2021/04/19 00:48:30;;;;;;;39.10;25.70;;;6.80;99.90;;;;;;5113051;28;20210;-57
2021/04/19 00:50:58;;;;;;;35.90;24.77;;;6.70;99.90;;;;;;5113293;28;20285;-58
2021/04/19 00:53:27;;;;;;;34.27;23.17;;;6.60;99.90;;;;;;5113371;28;20302;-59
2021/04/19 00:55:55;;;;;;;34.27;23.67;;;6.70;99.90;;;;;;5112386;28;20218;-59
2021/04/19 00:58:26;;;;;;;35.63;23.00;;;6.60;99.90;;;;;;5113133;28;20205;-58
2021/04/19 01:00:53;;;;;;;37.27;23.90;;;6.60;99.90;;;;;;5113007;28;20226;-58
2021/04/19 01:03:21;;;;;;;36.67;24.47;;;6.60;99.90;;;;;;5113084;28;20200;-58
2021/04/19 01:05:49;;;;;;;34.83;24.60;;;6.60;99.90;;;;;;5113084;28;20298;-58
2021/04/19 01:08:17;;;;;;;34.57;24.43;;;6.50;99.90;;;;;;5113096;28;20215;-60
2021/04/19 01:10:45;;;;;;;37.03;24.67;;;6.50;99.90;;;;;;5112414;28;20289;-59
2021/04/19 01:13:11;;;;;;;36.97;24.87;;;6.50;99.90;;;;;;5112620;28;20265;-59
2021/04/19 01:15:39;;;;;;;38.63;25.97;;;6.50;99.90;;;;;;5113058;28;20219;-59
2021/04/19 01:18:06;;;;;;;36.60;25.73;;;6.50;99.90;;;;;;5113095;28;20199;-59
2021/04/19 01:20:38;;;;;;;40.50;26.30;;;6.50;99.90;;;;;;5112983;28;20629;-58
2021/04/19 01:23:05;;;;;;;40.30;26.63;;;6.50;99.90;;;;;;5113044;28;20284;-59
2021/04/19 01:25:33;;;;;;;41.93;26.97;;;6.50;99.90;;;;;;5112084;28;20191;-58
2021/04/19 01:28:00;;;;;;;41.70;26.83;;;6.50;99.90;;;;;;5112665;28;20199;-58
2021/04/19 01:30:32;;;;;;;36.37;24.50;;;6.40;99.90;;;;;;5112724;28;20199;-59
2021/04/19 01:32:59;;;;;;;39.30;24.63;;;6.30;99.90;;;;;;5112791;28;20215;-57
2021/04/19 01:35:27;;;;;;;40.07;25.73;;;6.20;99.90;;;;;;5112846;28;20335;-59
2021/04/19 01:37:55;;;;;;;43.53;25.93;;;6.20;99.90;;;;;;5107748;28;20258;-58
2021/04/19 01:40:22;;;;;;;50.33;28.83;;;6.20;99.90;;;;;;5091890;28;20227;-58
2021/04/19 01:42:49;;;;;;;59.50;29.27;;;6.20;99.90;;;;;;5091971;28;20204;-59
2021/04/19 01:45:17;;;;;;;46.80;27.97;;;6.30;99.90;;;;;;5092362;28;20727;-59
2021/04/19 01:47:45;;;;;;;36.23;24.63;;;6.50;99.90;;;;;;5092141;28;20258;-59
2021/04/19 01:50:15;;;;;;;74.00;24.53;;;6.50;99.90;;;;;;5092353;28;20196;-58
2021/04/19 01:52:42;;;;;;;102.83;26.50;;;6.40;99.90;;;;;;5092042;28;20684;-58
2021/04/19 01:55:13;;;;;;;64.70;24.10;;;6.30;99.90;;;;;;5091942;28;20287;-58
2021/04/19 01:57:43;;;;;;;49.47;21.90;;;6.20;99.90;;;;;;5096143;28;20212;-58
2021/04/19 02:00:12;;;;;;;37.87;20.73;;;6.20;99.90;;;;;;5096149;28;20218;-59
2021/04/19 02:02:49;;;;;;;76.47;22.47;;;6.10;99.90;;;;;;5096155;28;20634;-58
2021/04/19 02:05:23;;;;;;;23.60;18.37;;;6.10;99.90;;;;;;5096018;28;20712;-59
2021/04/19 02:07:53;;;;;;;25.07;19.17;;;5.90;99.90;;;;;;5096016;28;20192;-59
2021/04/19 02:10:27;;;;;;;25.30;19.37;;;5.90;99.90;;;;;;5098095;28;20302;-59
2021/04/19 02:13:00;;;;;;;25.13;19.43;;;5.90;99.90;;;;;;5115880;28;20316;-59
2021/04/19 02:15:36;;;;;;;25.67;19.23;;;5.90;99.90;;;;;;5115415;28;20688;-59
2021/04/19 02:18:12;;;;;;;24.47;19.13;;;5.90;99.90;;;;;;5115469;28;20293;-58
2021/04/19 02:20:45;;;;;;;23.73;18.43;;;5.90;99.90;;;;;;5115567;28;20572;-58
2021/04/19 02:23:20;;;;;;;23.17;18.27;;;5.90;99.90;;;;;;5116078;28;20187;-58
2021/04/19 02:25:52;;;;;;;24.50;19.17;;;5.80;99.90;;;;;;5115499;28;20248;-57
2021/04/19 02:28:25;;;;;;;25.43;19.20;;;5.70;99.90;;;;;;5115984;28;20213;-59
2021/04/19 02:30:57;;;;;;;27.13;18.63;;;5.80;99.90;;;;;;5115592;28;20566;-58
2021/04/19 02:33:26;;;;;;;28.03;18.87;;;5.80;99.90;;;;;;5116093;28;20195;-59
2021/04/19 02:35:54;;;;;;;22.53;17.30;;;5.70;99.90;;;;;;5115809;28;20258;-57
2021/04/19 02:38:25;;;;;;;26.97;17.57;;;5.60;99.90;;;;;;5107185;28;20204;-58
2021/04/19 02:40:54;;;;;;;22.20;17.37;;;5.60;99.90;;;;;;5095015;28;20290;-59
2021/04/19 02:43:24;;;;;;;53.73;18.87;;;5.50;99.90;;;;;;5094986;28;20208;-57
2021/04/19 02:45:52;;;;;;;39.80;19.07;;;5.50;99.90;;;;;;5101399;28;20194;-57
2021/04/19 02:48:22;;;;;;;26.03;18.57;;;5.50;99.90;;;;;;5115347;28;20205;-59
2021/04/19 02:50:50;;;;;;;27.10;17.33;;;5.50;99.90;;;;;;5115339;28;20190;-59
2021/04/19 02:53:19;;;;;;;27.80;18.80;;;5.40;99.90;;;;;;5114789;28;20748;-59
2021/04/19 02:55:48;;;;;;;22.57;17.73;;;5.40;99.90;;;;;;5114866;28;20224;-59
2021/04/19 02:58:23;;;;;;;23.07;18.20;;;5.40;99.90;;;;;;5114979;28;20827;-59
2021/04/19 03:00:51;;;;;;;32.37;18.93;;;5.50;99.90;;;;;;5115063;28;20226;-59
2021/04/19 03:03:22;;;;;;;21.37;16.67;;;5.50;99.90;;;;;;5114872;28;20625;-59
2021/04/19 03:05:50;;;;;;;22.53;16.67;;;5.50;99.90;;;;;;5115032;28;20666;-58
2021/04/19 03:08:18;;;;;;;19.77;16.30;;;5.50;99.90;;;;;;5114732;28;20213;-58
2021/04/19 03:10:53;;;;;;;22.83;16.37;;;5.50;99.90;;;;;;5114458;27;20661;-58
2021/04/19 03:13:22;;;;;;;20.43;17.03;;;5.50;99.90;;;;;;5114785;28;20227;-59
2021/04/19 03:15:53;;;;;;;24.00;17.13;;;5.40;99.90;;;;;;5114934;28;20315;-59
2021/04/19 03:18:21;;;;;;;20.73;17.23;;;5.50;99.90;;;;;;5115122;28;20194;-59
2021/04/19 03:21:03;;;;;;;21.23;17.33;;;5.40;99.90;;;;;;5114547;28;20705;-59
2021/04/19 03:23:31;;;;;;;22.37;17.50;;;5.50;99.90;;;;;;5114338;28;20186;-59
2021/04/19 03:26:00;;;;;;;28.57;17.10;;;5.50;99.90;;;;;;5113636;28;20553;-59
2021/04/19 03:28:30;;;;;;;28.63;18.80;;;5.40;99.90;;;;;;5114770;28;20244;-59
2021/04/19 03:30:57;;;;;;;23.27;18.10;;;5.50;99.90;;;;;;5113891;28;20294;-58
2021/04/19 03:33:26;;;;;;;40.37;19.93;;;5.60;99.90;;;;;;5113761;28;20210;-60
2021/04/19 03:35:53;;;;;;;22.80;18.63;;;5.70;99.90;;;;;;5114558;28;20218;-58
2021/04/19 03:38:22;;;;;;;27.63;18.70;;;5.70;99.90;;;;;;5105825;28;20877;-58
2021/04/19 03:40:51;;;;;;;25.23;18.77;;;5.70;99.90;;;;;;5093927;28;20203;-60
2021/04/19 03:43:22;;;;;;;30.40;17.90;;;5.80;99.90;;;;;;5094136;28;20231;-59
2021/04/19 03:45:52;;;;;;;30.80;18.93;;;5.80;99.90;;;;;;5093962;28;20279;-59
2021/04/19 03:48:23;;;;;;;26.07;19.60;;;5.80;99.90;;;;;;5093780;28;20198;-58
2021/04/19 03:50:54;;;;;;;27.77;19.60;;;5.90;99.90;;;;;;5093963;28;20194;-58
2021/04/19 03:53:24;;;;;;;36.53;19.13;;;6.00;99.90;;;;;;5093783;28;20283;-59
2021/04/19 03:55:52;;;;;;;24.63;18.87;;;5.90;99.90;;;;;;5093685;28;20299;-59
2021/04/19 03:58:21;;;;;;;32.67;18.67;;;5.90;99.90;;;;;;5093710;28;20705;-60
2021/04/19 04:00:50;;;;;;;26.57;19.10;;;6.00;99.90;;;;;;5093451;28;20294;-59
2021/04/19 04:03:19;;;;;;;27.03;19.53;;;5.90;99.90;;;;;;5093832;28;20285;-59
2021/04/19 04:05:47;;;;;;;25.90;18.93;;;5.90;99.90;;;;;;5093641;28;20200;-59
2021/04/19 04:08:15;;;;;;;23.07;18.70;;;6.00;99.90;;;;;;5093293;28;20283;-59
2021/04/19 04:10:43;;;;;;;26.67;18.83;;;6.00;99.90;;;;;;5093278;28;20299;-59
2021/04/19 04:13:10;;;;;;;25.10;19.60;;;6.00;99.90;;;;;;5095929;28;20232;-58
2021/04/19 04:15:49;;;;;;;25.70;19.37;;;6.00;99.90;;;;;;5102853;28;20227;-59
2021/04/19 04:18:16;;;;;;;26.37;19.77;;;6.00;99.90;;;;;;5096584;28;20187;-59
2021/04/19 04:20:43;;;;;;;24.70;18.80;;;6.00;99.90;;;;;;5093304;28;20204;-60
2021/04/19 04:23:10;;;;;;;23.33;17.40;;;6.10;99.90;;;;;;5092402;28;20690;-59
2021/04/19 04:25:38;;;;;;;27.33;18.67;;;6.10;99.90;;;;;;5093269;28;20306;-59
2021/04/19 04:28:06;;;;;;;24.07;17.50;;;6.10;99.90;;;;;;5092970;28;20207;-59
2021/04/19 04:30:34;;;;;;;22.23;18.23;;;6.20;99.90;;;;;;5093339;28;20256;-59
2021/04/19 04:33:04;;;;;;;23.43;18.13;;;6.20;99.90;;;;;;5093028;28;20290;-59
2021/04/19 04:35:32;;;;;;;22.60;18.23;;;6.20;99.90;;;;;;5092867;28;20214;-57
2021/04/19 04:37:59;;;;;;;22.77;16.93;;;6.20;99.90;;;;;;5092490;28;20208;-58
2021/04/19 04:40:26;;;;;;;24.10;18.27;;;6.20;99.90;;;;;;5093114;28;20302;-59
2021/04/19 04:42:57;;;;;;;23.47;17.80;;;6.20;99.90;;;;;;5092740;28;20713;-60
2021/04/19 04:45:24;;;;;;;21.77;17.47;;;6.20;99.90;;;;;;5093009;28;20184;-59
2021/04/19 04:47:58;;;;;;;24.17;17.87;;;6.20;99.90;;;;;;5092927;28;20299;-60
2021/04/19 04:50:31;;;;;;;22.87;18.57;;;6.30;99.90;;;;;;5093028;28;20194;-58
2021/04/19 04:53:03;;;;;;;22.83;17.23;;;6.40;99.90;;;;;;5092643;28;20192;-59
2021/04/19 04:55:32;;;;;;;23.63;17.93;;;6.40;99.90;;;;;;5092318;28;20233;-58
2021/04/19 04:58:01;;;;;;;23.53;17.90;;;6.50;99.90;;;;;;5092803;28;20208;-58
2021/04/19 05:00:28;;;;;;;21.53;17.67;;;6.60;99.90;;;;;;5092516;28;20211;-58
2021/04/19 05:02:56;;;;;;;20.00;16.77;;;6.80;99.90;;;;;;5092177;28;20213;-59
2021/04/19 05:05:24;;;;;;;17.57;15.20;;;6.80;99.90;;;;;;5092283;28;20713;-60
2021/04/19 05:07:52;;;;;;;17.87;15.27;;;6.90;99.90;;;;;;5092357;28;20215;-59
2021/04/19 05:10:20;;;;;;;18.23;15.03;;;7.00;99.90;;;;;;5092126;28;20299;-59
2021/04/19 05:12:48;;;;;;;24.07;15.10;;;7.00;99.90;;;;;;5092215;28;20231;-60
2021/04/19 05:15:15;;;;;;;23.37;15.20;;;7.20;99.90;;;;;;5092308;28;20682;-59
2021/04/19 05:17:43;;;;;;;16.80;14.60;;;7.20;99.90;;;;;;5092092;28;20666;-59
2021/04/19 05:20:13;;;;;;;16.23;14.47;;;7.20;99.90;;;;;;5092571;28;20223;-59
2021/04/19 05:22:41;;;;;;;30.07;16.43;;;7.40;99.90;;;;;;5092219;28;20207;-58
2021/04/19 05:25:11;;;;;;;16.67;14.63;;;7.50;99.90;;;;;;5092118;28;20552;-59
2021/04/19 05:27:38;;;;;;;16.00;14.13;;;7.50;99.90;;;;;;5092675;28;20200;-59
2021/04/19 05:30:07;;;;;;;15.77;14.07;;;7.60;99.90;;;;;;5094369;28;20244;-59
2021/04/19 05:32:33;;;;;;;16.10;13.80;;;7.60;99.90;;;;;;5096293;28;20203;-58
2021/04/19 05:35:01;;;;;;;15.67;13.97;;;7.50;99.90;;;;;;5112880;28;20214;-60
2021/04/19 05:37:29;;;;;;;17.17;14.70;;;7.60;99.90;;;;;;5115108;28;20215;-58
2021/04/19 05:39:57;;;;;;;15.40;13.70;;;7.60;99.90;;;;;;5096168;28;20210;-60
2021/04/19 05:42:25;;;;;;;18.00;14.27;;;7.60;99.90;;;;;;5096083;28;20199;-59
2021/04/19 05:44:52;;;;;;;15.70;13.77;;;7.60;99.90;;;;;;5096412;28;20286;-59
2021/04/19 05:47:19;;;;;;;18.90;13.87;;;7.60;99.90;;;;;;5095960;28;20199;-59
2021/04/19 05:49:48;;;;;;;14.83;12.93;;;7.70;99.90;;;;;;5096214;28;20206;-59
2021/04/19 05:52:19;;;;;;;15.40;13.40;;;7.80;99.90;;;;;;5095542;28;20216;-60
2021/04/19 05:54:46;;;;;;;16.13;13.00;;;7.90;99.90;;;;;;5095957;28;20203;-58
2021/04/19 05:57:23;;;;;;;16.13;14.27;;;8.10;99.90;;;;;;5095752;28;20247;-59
2021/04/19 05:59:59;;;;;;;18.47;14.30;;;8.30;99.90;;;;;;5096050;28;20210;-59
2021/04/19 06:02:38;;;;;;;16.27;13.93;;;8.50;99.90;;;;;;5091629;28;20185;-58
2021/04/19 06:05:10;;;;;;;15.87;14.17;;;8.60;99.90;;;;;;5109343;28;20226;-59
2021/04/19 06:07:42;;;;;;;19.60;14.67;;;8.70;99.90;;;;;;5115727;28;20275;-58
2021/04/19 06:10:13;;;;;;;16.70;14.17;;;8.60;99.90;;;;;;5108042;28;20224;-59
2021/04/19 06:12:46;;;;;;;18.63;15.50;;;8.60;99.90;;;;;;5095497;28;20227;-59
2021/04/19 06:15:15;;;;;;;17.00;14.97;;;8.70;99.90;;;;;;5095413;28;20272;-60
2021/04/19 06:17:46;;;;;;;17.37;14.33;;;8.80;99.90;;;;;;5095571;28;20519;-58
2021/04/19 06:20:15;;;;;;;16.47;14.57;;;8.70;99.90;;;;;;5095432;28;20180;-59
2021/04/19 06:22:43;;;;;;;16.90;14.97;;;8.60;99.90;;;;;;5095110;28;20882;-58
2021/04/19 06:25:12;;;;;;;16.70;14.77;;;8.70;99.90;;;;;;5095274;28;20291;-59
2021/04/19 06:27:40;;;;;;;19.57;15.67;;;8.60;99.90;;;;;;5095603;28;20291;-59
2021/04/19 06:30:16;;;;;;;20.37;15.80;;;8.60;99.90;;;;;;5095314;28;20357;-60
2021/04/19 06:32:45;;;;;;;20.70;17.40;;;8.40;99.90;;;;;;5095308;28;20224;-60
2021/04/19 06:35:13;;;;;;;20.17;16.77;;;8.40;99.90;;;;;;5113369;28;20207;-59
2021/04/19 06:37:41;;;;;;;20.43;16.80;;;8.50;99.90;;;;;;5112455;28;20714;-59
2021/04/19 06:40:09;;;;;;;19.70;15.90;;;8.50;99.90;;;;;;5095029;28;20307;-59
2021/04/19 06:42:36;;;;;;;20.17;16.20;;;8.60;99.90;;;;;;5094058;28;20664;-59
2021/04/19 06:45:05;;;;;;;18.60;15.80;;;8.60;99.90;;;;;;5094890;28;20204;-59
2021/04/19 06:47:35;;;;;;;19.77;16.93;;;8.80;99.90;;;;;;5094858;28;20224;-59
2021/04/19 06:50:05;;;;;;;18.30;16.03;;;8.80;99.90;;;;;;5094680;28;20267;-58
2021/04/19 06:52:33;;;;;;;18.93;16.17;;;8.90;99.90;;;;;;5094054;28;20215;-58
2021/04/19 06:55:00;;;;;;;20.10;16.07;;;9.00;99.90;;;;;;5094482;28;20200;-58
2021/04/19 06:57:31;;;;;;;20.00;15.57;;;9.00;99.90;;;;;;5094728;28;20230;-60
2021/04/19 06:59:58;;;;;;;18.27;15.63;;;9.00;99.90;;;;;;5094819;28;20271;-59
2021/04/19 07:02:27;;;;;;;20.40;16.13;;;8.70;99.90;;;;;;5083963;28;20211;-59
2021/04/19 07:04:56;;;;;;;19.33;16.20;;;8.50;99.90;;;;;;5106810;28;20665;-59
2021/04/19 07:07:29;;;;;;;19.80;16.67;;;8.50;99.90;;;;;;5111641;28;20200;-60
2021/04/19 07:09:59;;;;;;;18.53;16.03;;;8.50;99.90;;;;;;5106659;28;20295;-59
2021/04/19 07:12:28;;;;;;;21.70;16.43;;;8.50;99.90;;;;;;5094283;28;20294;-60
2021/04/19 07:14:56;;;;;;;18.97;16.83;;;8.70;99.90;;;;;;5094381;28;20271;-61
2021/04/19 07:17:25;;;;;;;20.97;16.87;;;8.70;99.90;;;;;;5094422;28;20307;-60
2021/04/19 07:19:52;;;;;;;19.53;16.50;;;8.70;99.90;;;;;;5092298;28;20211;-60
2021/04/19 07:22:21;;;;;;;17.70;15.73;;;8.60;99.90;;;;;;5082651;28;20220;-60
2021/04/19 07:24:48;;;;;;;19.53;15.67;;;8.80;99.90;;;;;;5071034;28;20201;-60
2021/04/19 07:27:15;;;;;;;16.33;14.40;;;8.90;99.90;;;;;;5070929;28;20224;-61
2021/04/19 07:29:43;;;;;;;20.87;15.37;;;9.10;99.90;;;;;;5071091;28;20232;-61
2021/04/19 07:32:10;;;;;;;16.80;14.43;;;9.10;99.90;;;;;;5072461;28;20879;-60
2021/04/19 07:34:38;;;;;;;16.53;13.87;;;9.10;99.90;;;;;;5089027;28;20200;-61
2021/04/19 07:37:06;;;;;;;16.83;14.53;;;9.30;99.90;;;;;;5091172;28;20220;-60
2021/04/19 07:39:39;;;;;;;16.07;13.47;;;9.50;99.90;;;;;;5091110;28;20223;-60
2021/04/19 07:42:08;;;;;;;15.87;13.07;;;9.60;99.90;;;;;;5091138;28;20363;-60
2021/04/19 07:44:41;;;;;;;13.83;12.27;;;9.50;99.90;;;;;;5089805;28;20291;-60
2021/04/19 07:47:26;;;;;;;14.80;13.30;;;9.50;99.90;;;;;;5090837;28;20291;-60
2021/04/19 07:49:58;;;;;;;14.43;12.50;;;9.60;99.90;;;;;;5090862;28;20242;-60
2021/04/19 07:52:27;;;;;;;14.93;13.13;;;9.50;99.90;;;;;;5089762;28;20204;-61
2021/04/19 07:55:14;;;;;;;15.50;13.07;;;9.50;99.90;;;;;;5089469;28;20232;-60
2021/04/19 07:58:01;;;;;;;15.17;13.20;;;9.60;99.90;;;;;;5090185;28;20247;-59
2021/04/19 08:00:31;;;;;;;15.13;13.03;;;9.80;99.90;;;;;;5090221;28;20204;-59
2021/04/19 08:03:03;;;;;;;15.93;13.47;;;9.80;99.90;;;;;;5090316;28;20280;-60
2021/04/19 08:05:38;;;;;;;17.23;14.50;;;9.80;99.90;;;;;;5069769;28;20564;-60
2021/04/19 08:08:07;;;;;;;18.47;13.47;;;9.60;99.90;;;;;;5078706;28;20726;-60
2021/04/19 08:10:35;;;;;;;16.03;13.57;;;9.80;99.90;;;;;;5088023;28;20289;-59
2021/04/19 08:13:06;;;;;;;16.80;14.10;;;9.90;99.90;;;;;;5073829;28;20271;-59
2021/04/19 08:15:33;;;;;;;17.57;14.50;;;9.90;99.90;;;;;;5069780;28;20205;-61
2021/04/19 08:18:02;;;;;;;18.80;15.43;;;10.00;99.90;;;;;;5069719;28;20528;-62
2021/04/19 08:20:30;;;;;;;16.93;15.07;;;10.20;99.90;;;;;;5075514;28;20231;-61
2021/04/19 08:23:06;;;;;;;18.27;15.77;;;10.40;99.90;;;;;;5076051;28;20265;-61
2021/04/19 08:25:41;;;;;;;17.43;15.10;;;10.40;99.90;;;;;;5070271;28;20204;-63
2021/04/19 08:28:10;;;;;;;18.57;16.03;;;10.40;99.90;;;;;;5069835;28;20246;-59
2021/04/19 08:30:38;;;;;;;17.40;15.50;;;10.50;99.90;;;;;;5069628;28;20233;-58
2021/04/19 08:33:06;;;;;;;19.67;16.77;;;10.40;99.90;;;;;;5069507;28;20254;-59
2021/04/19 08:35:34;;;;;;;18.20;15.27;;;10.40;99.90;;;;;;5069234;28;20200;-59
2021/04/19 08:38:02;;;;;;;19.00;15.50;;;10.50;99.90;;;;;;5074504;28;20232;-59
2021/04/19 08:40:32;;;;;;;16.80;14.83;;;10.70;99.90;;;;;;5089271;28;20620;-59
2021/04/19 08:43:00;;;;;;;17.83;14.33;;;10.80;99.90;;;;;;5088663;28;20243;-59
2021/04/19 08:45:30;;;;;;;17.77;15.30;;;10.80;99.90;;;;;;5089059;28;20287;-59
2021/04/19 08:48:00;;;;;;;18.10;15.33;;;11.20;99.90;;;;;;5089472;28;20237;-59
2021/04/19 08:50:28;;;;;;;18.90;15.70;;;11.40;99.90;;;;;;5089512;28;20219;-59
2021/04/19 08:52:57;;;;;;;16.40;14.60;;;11.40;99.90;;;;;;5088901;28;20287;-59
2021/04/19 08:55:26;;;;;;;17.73;14.53;;;11.30;99.90;;;;;;5088681;28;20200;-59
2021/04/19 08:57:53;;;;;;;17.13;14.03;;;11.60;99.90;;;;;;5089205;28;20230;-59
2021/04/19 09:00:25;;;;;;;17.23;14.20;;;11.60;99.90;;;;;;5089251;28;20199;-61
2021/04/19 09:02:52;;;;;;;16.73;14.33;;;11.50;99.90;;;;;;5088687;28;20607;-60
2021/04/19 09:05:23;;;;;;;18.70;14.83;;;11.60;99.90;;;;;;5088703;28;20261;-61
2021/04/19 09:08:00;;;;;;;18.70;15.00;;;11.40;99.90;;;;;;5089303;28;20206;-61
2021/04/19 09:10:27;;;;;;;20.80;16.07;;;11.00;99.90;;;;;;5088866;28;20194;-61
2021/04/19 09:12:54;;;;;;;19.20;15.73;;;10.90;99.90;;;;;;5088214;28;20251;-61
2021/04/19 09:15:29;;;;;;;20.37;16.30;;;10.90;99.90;;;;;;5088621;28;20203;-61
2021/04/19 09:18:06;;;;;;;22.37;16.63;;;11.00;99.90;;;;;;5088570;28;20698;-60
2021/04/19 09:20:47;;;;;;;20.27;16.27;;;11.20;99.90;;;;;;5089105;28;20619;-61
2021/04/19 09:23:26;;;;;;;22.10;16.60;;;11.30;99.90;;;;;;5088848;28;20292;-61
2021/04/19 09:25:54;;;;;;;19.77;16.17;;;11.30;99.90;;;;;;5088668;28;20203;-61
2021/04/19 09:28:55;;;;;;;21.50;16.60;;;11.50;99.90;;;;;;5088852;28;20257;-59
2021/04/19 09:32:01;;;;;;;22.57;17.27;;;11.70;99.90;;;;;;5088887;28;20279;-59
2021/04/19 09:34:45;;;;;;;23.20;18.07;;;11.90;99.90;;;;;;5088745;28;20925;-58
2021/04/19 09:37:14;;;;;;;20.83;16.97;;;11.70;99.90;;;;;;5088225;28;20222;-60
2021/04/19 09:39:46;;;;;;;20.97;17.80;;;11.70;99.90;;;;;;5088031;28;20233;-59
2021/04/19 09:42:14;;;;;;;21.37;17.13;;;11.60;99.90;;;;;;5087743;28;20610;-59
2021/04/19 09:44:52;;;;;;;19.93;16.80;;;11.90;99.90;;;;;;5088435;28;20227;-58
2021/04/19 09:47:47;;;;;;;21.20;17.50;;;12.10;99.90;;;;;;5088089;28;20826;-59
2021/04/19 09:50:16;;;;;;;19.27;16.50;;;12.40;99.90;;;;;;5089261;28;20219;-59
2021/04/19 09:52:52;;;;;;;20.77;17.20;;;12.40;99.90;;;;;;5089205;28;20224;-60
2021/04/19 09:55:20;;;;;;;18.40;16.40;;;12.30;99.90;;;;;;5088776;28;20237;-60
2021/04/19 09:57:47;;;;;;;19.13;16.63;;;12.30;99.90;;;;;;5088752;28;20728;-59
2021/04/19 10:00:16;;;;;;;20.70;17.27;;;12.20;99.90;;;;;;5088805;28;20694;-59
2021/04/19 10:02:44;;;;;;;24.17;18.93;;;12.30;99.90;;;;;;5088918;28;20235;-60
2021/04/19 10:05:13;;;;;;;19.87;17.57;;;12.40;99.90;;;;;;5088729;28;20230;-60
2021/04/19 10:07:45;;;;;;;24.30;18.42;;;12.70;99.90;;;;;;5088520;28;20245;-60
2021/04/19 10:10:16;;;;;;;21.03;18.30;;;12.90;99.90;;;;;;5088304;28;20243;-60
2021/04/19 10:12:46;;;;;;;19.70;17.38;;;13.20;99.90;;;;;;5088409;28;20263;-58
2021/04/19 10:15:18;;;;;;;19.10;17.10;;;13.50;99.90;;;;;;5088777;28;20228;-59
2021/04/19 10:17:47;;;;;;;21.48;19.10;;;13.70;99.90;;;;;;5091448;28;20204;-59
2021/04/19 10:20:22;;;;;;;20.98;18.27;;;13.70;99.90;;;;;;5092650;28;20204;-61
2021/04/19 10:23:07;;;;;;;20.90;18.70;;;13.70;99.90;;;;;;5092504;28;20183;-60
2021/04/19 10:25:35;;;;;;;24.02;19.95;;;14.10;99.90;;;;;;5092259;28;20241;-61
2021/04/19 10:28:05;;;;;;;23.58;20.38;;;14.30;99.90;;;;;;5092291;28;20184;-59
2021/04/19 10:30:33;;;;;;;25.25;22.05;;;14.30;99.90;;;;;;5092617;28;20203;-58
2021/04/19 10:33:00;;;;;;;23.58;20.75;;;14.20;99.90;;;;;;5092351;28;20204;-59
2021/04/19 10:35:36;;;;;;;23.33;19.38;;;14.50;99.90;;;;;;5092328;28;20229;-60
2021/04/19 10:38:14;;;;;;;21.98;19.52;;;15.00;99.90;;;;;;5092173;28;20219;-60
2021/04/19 10:40:41;;;;;;;23.13;19.77;;;15.10;99.90;;;;;;5091995;28;20671;-60
2021/04/19 10:43:10;;;;;;;23.20;20.80;;;15.30;99.90;;;;;;5092276;28;20211;-59
2021/04/19 10:45:37;;;;;;;21.77;19.50;;;15.40;99.90;;;;;;5092117;28;20645;-59
2021/04/19 10:48:21;;;;;;;22.88;19.17;;;15.50;99.90;;;;;;5092124;28;20192;-60
2021/04/19 10:50:49;;;;;;;22.67;20.25;;;15.80;99.90;;;;;;5092029;28;20199;-60
2021/04/19 10:53:34;;;;;;;23.13;20.60;;;16.10;99.90;;;;;;5092054;28;20552;-59
2021/04/19 10:56:04;;;;;;;22.33;19.25;;;16.10;99.90;;;;;;5091608;28;20216;-60
2021/04/19 10:58:33;;;;;;;23.77;20.45;;;15.80;99.90;;;;;;5091558;28;20322;-60
2021/04/19 11:01:01;;;;;;;24.30;20.50;;;15.20;99.90;;;;;;5091655;28;20210;-60
2021/04/19 11:03:35;;;;;;;23.17;20.42;;;15.00;99.90;;;;;;5091826;28;20227;-60
2021/04/19 11:06:06;;;;;;;23.02;20.35;;;14.90;99.90;;;;;;5091561;28;20187;-59
2021/04/19 11:08:56;;;;;;;22.55;20.00;;;14.70;99.90;;;;;;5091614;28;20298;-59
2021/04/19 11:11:25;;;;;;;22.60;19.08;;;14.40;99.90;;;;;;5087153;28;20239;-59
2021/04/19 11:13:53;;;;;;;23.88;20.90;;;14.00;99.90;;;;;;5088126;28;20314;-60
2021/04/19 11:16:21;;;;;;;21.10;18.70;;;13.70;99.90;;;;;;5089230;28;20303;-59
2021/04/19 11:18:49;;;;;;;20.10;18.00;;;13.80;99.90;;;;;;5091199;28;20346;-60
2021/04/19 11:21:35;;;;;;;23.55;19.60;;;13.70;99.90;;;;;;5091146;28;20218;-59
2021/04/19 11:24:07;;;;;;;21.30;18.92;;;13.70;99.90;;;;;;5091228;28;20218;-61
2021/04/19 11:26:35;;;;;;;20.73;17.75;;;13.60;99.90;;;;;;5090701;28;20292;-60
2021/04/19 11:29:03;;;;;;;21.00;18.80;;;13.80;99.90;;;;;;5090904;28;20272;-58
2021/04/19 11:31:40;;;;;;;22.88;19.00;;;13.90;99.90;;;;;;5090747;28;20279;-60
2021/04/19 11:34:10;;;;;;;20.90;17.85;;;14.10;99.90;;;;;;5091121;28;20286;-59
2021/04/19 11:36:58;;;;;;;20.52;17.48;;;14.30;99.90;;;;;;5090654;28;20825;-62
2021/04/19 11:39:25;;;;;;;20.58;17.75;;;14.50;99.90;;;;;;5090862;28;20565;-60
2021/04/19 11:41:52;;;;;;;20.02;17.83;;;14.60;99.90;;;;;;5091010;28;20877;-61
2021/04/19 11:44:19;;;;;;;21.70;18.80;;;14.50;99.90;;;;;;5090656;28;20299;-60
2021/04/19 11:46:49;;;;;;;20.70;18.08;;;14.70;99.90;;;;;;5090796;28;20295;-61
2021/04/19 11:49:17;;;;;;;21.95;17.88;;;15.00;99.90;;;;;;5090707;28;20207;-60
2021/04/19 11:51:45;;;;;;;20.15;17.85;;;15.40;99.90;;;;;;5090917;28;20236;-60
2021/04/19 11:54:14;;;;;;;19.70;17.25;;;15.80;99.90;;;;;;5090350;28;20208;-60
2021/04/19 11:56:41;;;;;;;19.15;17.10;;;16.30;99.90;;;;;;5090478;28;20204;-60
2021/04/19 11:59:07;;;;;;;20.55;16.92;;;16.50;99.90;;;;;;5090280;28;20751;-60
2021/04/19 12:01:35;;;;;;;19.42;16.45;;;16.50;99.90;;;;;;5090505;28;20266;-60
2021/04/19 12:04:04;;;;;;;19.48;16.92;;;16.50;99.90;;;;;;5090964;28;20207;-60
2021/04/19 12:06:30;;;;;;;18.13;16.05;;;16.20;99.90;;;;;;5095946;28;20208;-59
2021/04/19 12:08:57;;;;;;;17.35;15.55;;;15.80;99.90;;;;;;5100882;28;20242;-58
2021/04/19 12:11:25;;;;;;;20.65;17.15;;;15.70;99.90;;;;;;5096262;28;20235;-57
2021/04/19 12:13:59;;;;;;;19.80;16.80;;;15.70;99.90;;;;;;5089643;28;20702;-58
2021/04/19 12:16:26;;;;;;;20.20;16.92;;;15.40;99.90;;;;;;5089995;28;20191;-57
2021/04/19 12:18:53;;;;;;;20.83;17.48;;;15.30;99.90;;;;;;5090152;28;20331;-58
2021/04/19 12:21:21;;;;;;;20.92;17.25;;;15.00;99.90;;;;;;5089727;28;20195;-59
2021/04/19 12:23:48;;;;;;;20.73;17.30;;;15.00;99.90;;;;;;5089859;28;20299;-59
2021/04/19 12:26:15;;;;;;;19.70;16.40;;;15.00;99.90;;;;;;5089774;28;20298;-59
2021/04/19 12:28:47;;;;;;;21.77;18.60;;;15.10;99.90;;;;;;5090102;28;20338;-59
2021/04/19 12:31:15;;;;;;;21.27;18.45;;;15.20;99.90;;;;;;5089628;28;20200;-60
2021/04/19 12:33:42;;;;;;;20.08;17.58;;;15.20;99.90;;;;;;5089738;28;20200;-61
2021/04/19 12:36:10;;;;;;;22.33;18.17;;;15.30;99.90;;;;;;5089955;28;20223;-60
2021/04/19 12:38:37;;;;;;;20.33;17.33;;;15.20;99.90;;;;;;5089552;28;20315;-59
2021/04/19 12:41:05;;;;;;;21.02;18.10;;;15.10;99.90;;;;;;5089125;28;20207;-60
2021/04/19 12:43:31;;;;;;;20.90;17.35;;;14.80;99.90;;;;;;5089933;28;20232;-59
2021/04/19 12:45:59;;;;;;;21.60;17.67;;;14.70;99.90;;;;;;5089956;28;20363;-54
2021/04/19 12:48:26;;;;;;;19.88;16.45;;;14.60;99.90;;;;;;5089502;28;20200;-55